Time;durP1;ratioP1;P1;durP2;ratioP2;P2;SDS_P1;SDS_P2;PMS_P1;PMS_P2;Temp;Humidity;BMP_temperature;BMP_pressure;BME280_temperature;BME280_humidity;BME280_pressure;Samples;Min_cycle;Max_cycle;Signal;HPM_P1;HPM_P2
2021/12/24 00:00:23;;;;;;;5.00;3.57;;;10.40;99.90;;;;;;4995221;28;20493;-63
2021/12/24 00:02:49;;;;;;;4.03;3.50;;;10.40;99.90;;;;;;4995134;28;20415;-63
2021/12/24 00:05:15;;;;;;;3.70;3.17;;;10.50;99.90;;;;;;4993652;28;20169;-63
2021/12/24 00:07:41;;;;;;;4.33;3.77;;;10.50;99.90;;;;;;4994779;28;20408;-63
2021/12/24 00:10:09;;;;;;;4.10;3.63;;;10.30;99.90;;;;;;4994805;28;20482;-63
2021/12/24 00:12:39;;;;;;;4.90;4.10;;;10.30;99.90;;;;;;4993656;28;20422;-63
2021/12/24 00:15:21;;;;;;;4.83;4.33;;;10.30;99.90;;;;;;4995035;28;20900;-63
2021/12/24 00:17:47;;;;;;;4.40;4.00;;;10.30;99.90;;;;;;4994993;28;20823;-62
2021/12/24 00:36:50;;;;;;;8.33;3.50;;;10.30;99.90;;;;;;4994791;28;20485;-63
2021/12/24 00:39:16;;;;;;;4.83;3.63;;;10.40;99.90;;;;;;4994336;28;20435;-63
2021/12/24 00:41:42;;;;;;;4.50;4.10;;;10.40;99.90;;;;;;4994873;28;20197;-63
2021/12/24 00:44:07;;;;;;;3.87;3.47;;;10.30;99.90;;;;;;4994580;28;20175;-63
2021/12/24 00:46:34;;;;;;;4.17;3.30;;;10.40;99.90;;;;;;4994567;28;20255;-63
2021/12/24 00:49:01;;;;;;;3.87;3.20;;;10.30;99.90;;;;;;4993249;28;20188;-63
2021/12/24 00:51:43;;;;;;;5.00;4.07;;;10.30;99.90;;;;;;4994397;28;20501;-63
2021/12/24 00:56:56;;;;;;;4.27;3.87;;;10.40;99.90;;;;;;4994134;28;20395;-63
2021/12/24 00:59:21;;;;;;;3.63;3.33;;;10.50;99.90;;;;;;4994213;28;20429;-63
2021/12/24 01:01:47;;;;;;;5.70;3.47;;;10.50;99.90;;;;;;4993966;28;20554;-63
2021/12/24 01:04:13;;;;;;;3.10;2.80;;;10.50;99.90;;;;;;4994233;28;20172;-63
2021/12/24 01:06:38;;;;;;;3.50;3.20;;;10.40;99.90;;;;;;4993991;28;20233;-63
2021/12/24 01:09:04;;;;;;;4.50;3.57;;;10.40;99.90;;;;;;4994034;28;20428;-63
2021/12/24 01:11:30;;;;;;;3.33;2.80;;;10.20;99.90;;;;;;4993476;28;20232;-63
2021/12/24 01:13:59;;;;;;;3.93;3.40;;;10.40;99.90;;;;;;4993962;28;20592;-63
2021/12/24 01:16:39;;;;;;;3.47;3.17;;;10.40;99.90;;;;;;4993895;28;20782;-63
2021/12/24 01:19:11;;;;;;;5.23;2.90;;;10.50;99.90;;;;;;4993956;28;20605;-63
2021/12/24 01:24:29;;;;;;;3.30;3.00;;;10.60;99.90;;;;;;4994148;28;20879;-63
2021/12/24 01:40:27;;;;;;;4.20;2.93;;;10.30;99.90;;;;;;4993914;28;20429;-62
2021/12/24 01:42:55;;;;;;;3.33;2.87;;;10.30;99.90;;;;;;4992674;28;20763;-62
2021/12/24 01:45:29;;;;;;;4.37;3.63;;;10.20;99.90;;;;;;4993753;28;20419;-62
2021/12/24 01:47:58;;;;;;;3.50;3.00;;;10.20;99.90;;;;;;4993648;28;20417;-62
2021/12/24 01:50:25;;;;;;;3.37;2.87;;;10.20;99.90;;;;;;4993638;28;20441;-62
2021/12/24 01:52:53;;;;;;;3.40;3.10;;;10.30;99.90;;;;;;4993925;28;20423;-62
2021/12/24 01:55:20;;;;;;;4.60;3.17;;;10.40;99.90;;;;;;4994687;28;20415;-62
2021/12/24 01:57:46;;;;;;;4.00;3.33;;;10.40;99.90;;;;;;4994027;28;20468;-62
2021/12/24 02:00:20;;;;;;;2.97;2.73;;;10.50;99.90;;;;;;4993607;28;20474;-62
2021/12/24 02:02:46;;;;;;;4.00;3.23;;;10.50;99.90;;;;;;4993698;28;20401;-63
2021/12/24 02:05:13;;;;;;;3.47;3.17;;;10.40;99.90;;;;;;4993668;28;20400;-62
2021/12/24 02:07:39;;;;;;;4.20;3.07;;;10.50;99.90;;;;;;4993550;28;20417;-62
2021/12/24 02:10:07;;;;;;;5.00;3.40;;;10.50;99.90;;;;;;4993945;28;20429;-62
2021/12/24 02:12:35;;;;;;;2.70;2.50;;;10.50;99.90;;;;;;4993891;28;20792;-62
2021/12/24 02:15:09;;;;;;;2.70;2.50;;;10.60;99.90;;;;;;4993699;28;20406;-62
2021/12/24 02:17:54;;;;;;;3.87;3.20;;;10.60;99.90;;;;;;4993746;28;20389;-63
2021/12/24 02:28:39;;;;;;;4.23;3.20;;;10.80;99.90;;;;;;4997388;28;20436;-63
2021/12/24 02:31:10;;;;;;;4.50;2.57;;;10.70;99.90;;;;;;4997193;28;20446;-63
2021/12/24 02:33:37;;;;;;;3.80;2.90;;;10.90;99.90;;;;;;4997303;28;20411;-63
2021/12/24 02:36:03;;;;;;;3.10;2.80;;;10.80;99.90;;;;;;4996708;28;20507;-63
2021/12/24 02:38:29;;;;;;;3.87;3.30;;;10.80;99.90;;;;;;4996851;28;20415;-64
2021/12/24 02:40:55;;;;;;;3.60;2.90;;;10.90;99.90;;;;;;4996564;28;20505;-63
2021/12/24 02:43:23;;;;;;;2.63;2.43;;;10.90;99.90;;;;;;4996596;28;20248;-63
2021/12/24 02:45:52;;;;;;;2.87;2.57;;;11.00;99.90;;;;;;4995334;28;20408;-63
2021/12/24 02:53:57;;;;;;;3.80;3.00;;;10.70;99.90;;;;;;4996765;28;20474;-63
2021/12/24 02:56:30;;;;;;;4.63;3.07;;;10.50;99.90;;;;;;4997081;28;20480;-63
2021/12/24 02:58:56;;;;;;;5.83;3.00;;;10.50;99.90;;;;;;4996484;28;20435;-63
2021/12/24 03:01:25;;;;;;;2.90;2.70;;;10.40;99.90;;;;;;4994907;28;20447;-63
2021/12/24 03:03:51;;;;;;;5.53;3.10;;;10.30;99.90;;;;;;4996107;28;20404;-63
2021/12/24 03:06:19;;;;;;;4.60;2.97;;;10.30;99.90;;;;;;4996337;28;20410;-64
2021/12/24 03:08:45;;;;;;;3.60;3.10;;;10.40;99.90;;;;;;4996245;28;20412;-63
2021/12/24 03:11:11;;;;;;;2.30;1.93;;;10.40;99.90;;;;;;4995960;28;20416;-64
2021/12/24 03:13:38;;;;;;;3.50;2.97;;;10.40;99.90;;;;;;4996280;28;20253;-63
2021/12/24 03:16:04;;;;;;;3.27;2.97;;;10.40;99.90;;;;;;4995910;28;20432;-64
2021/12/24 03:18:32;;;;;;;3.53;3.23;;;10.40;99.90;;;;;;4994998;28;20488;-63
2021/12/24 03:21:10;;;;;;;3.53;3.23;;;10.40;99.90;;;;;;4995715;28;20212;-63
2021/12/24 03:26:25;;;;;;;3.30;3.00;;;10.20;99.90;;;;;;4977122;28;20417;-63
2021/12/24 03:28:50;;;;;;;4.47;3.60;;;10.10;99.90;;;;;;4995787;28;20424;-63
2021/12/24 03:31:16;;;;;;;3.33;3.03;;;10.20;99.90;;;;;;4995947;28;20181;-63
2021/12/24 03:33:41;;;;;;;3.23;2.97;;;10.20;99.90;;;;;;4995640;28;20544;-63
2021/12/24 03:36:08;;;;;;;2.60;2.40;;;10.30;99.90;;;;;;4995481;28;20175;-63
2021/12/24 03:38:35;;;;;;;3.23;2.93;;;10.30;99.90;;;;;;4995447;28;20179;-63
2021/12/24 03:41:00;;;;;;;3.13;2.63;;;10.30;99.90;;;;;;4995616;28;20454;-63
2021/12/24 03:43:26;;;;;;;3.10;2.90;;;10.40;99.90;;;;;;4995763;28;20464;-63
2021/12/24 03:48:27;;;;;;;4.83;3.10;;;10.40;99.90;;;;;;4995334;28;20170;-62
2021/12/24 03:56:37;;;;;;;4.10;2.93;;;10.60;99.90;;;;;;4995705;28;20481;-63
2021/12/24 03:59:04;;;;;;;3.20;2.80;;;10.70;99.90;;;;;;4995088;28;20445;-63
2021/12/24 04:01:29;;;;;;;5.03;3.97;;;10.70;99.90;;;;;;4994936;28;21046;-63
2021/12/24 04:03:55;;;;;;;3.40;2.57;;;10.60;99.90;;;;;;4995022;28;20408;-63
2021/12/24 04:06:21;;;;;;;3.50;2.37;;;10.50;99.90;;;;;;4994985;28;20208;-63
2021/12/24 04:08:47;;;;;;;2.87;2.57;;;10.60;99.90;;;;;;4994979;28;20283;-63
2021/12/24 04:11:13;;;;;;;2.73;2.53;;;10.50;99.90;;;;;;4994842;28;20888;-63
2021/12/24 04:13:39;;;;;;;2.97;2.60;;;10.40;99.90;;;;;;4995657;28;20531;-63
2021/12/24 04:16:05;;;;;;;3.50;2.40;;;10.40;99.90;;;;;;4995155;28;20530;-62
2021/12/24 04:26:27;;;;;;;3.10;2.80;;;10.10;99.90;;;;;;4995245;28;20888;-62
2021/12/24 04:28:52;;;;;;;2.90;2.60;;;10.10;99.90;;;;;;4994775;28;20395;-62
2021/12/24 04:31:23;;;;;;;4.10;2.40;;;10.00;99.90;;;;;;4993219;28;21072;-61
2021/12/24 04:33:50;;;;;;;3.40;2.73;;;10.00;99.90;;;;;;4994364;28;20656;-62
2021/12/24 05:03:37;;;;;;;5.93;3.10;;;10.60;99.90;;;;;;4994287;28;20438;-60
2021/12/24 05:06:12;;;;;;;3.60;3.23;;;10.50;99.90;;;;;;4993923;28;20471;-62
2021/12/24 05:08:48;;;;;;;3.33;3.03;;;10.60;99.90;;;;;;4994222;28;20446;-62
2021/12/24 05:11:15;;;;;;;3.47;2.90;;;10.80;99.90;;;;;;4993869;28;20422;-62
2021/12/24 05:13:41;;;;;;;3.47;3.17;;;10.80;99.90;;;;;;4994100;28;20413;-62
2021/12/24 05:16:45;;;;;;;3.80;3.07;;;11.00;99.90;;;;;;4993869;28;20418;-62
2021/12/24 05:21:37;;;;;;;5.03;3.47;;;11.00;99.90;;;;;;4994026;28;20447;-62
2021/12/24 05:24:13;;;;;;;2.77;2.53;;;10.90;99.90;;;;;;4993744;28;20422;-62
2021/12/24 05:26:40;;;;;;;4.20;3.20;;;11.00;99.90;;;;;;4993794;28;20399;-62
2021/12/24 05:29:06;;;;;;;3.23;2.43;;;11.00;99.90;;;;;;4993980;28;20926;-62
2021/12/24 05:31:33;;;;;;;3.93;3.30;;;10.90;99.90;;;;;;4993621;28;20408;-62
2021/12/24 05:33:59;;;;;;;5.80;3.10;;;10.70;99.90;;;;;;4993904;28;20423;-62
2021/12/24 05:36:25;;;;;;;3.60;3.30;;;10.80;99.90;;;;;;4993564;28;20436;-62
2021/12/24 05:38:51;;;;;;;3.93;3.00;;;10.70;99.90;;;;;;4993550;28;20831;-62
2021/12/24 05:41:23;;;;;;;3.67;2.93;;;10.80;99.90;;;;;;4993444;28;20446;-62
2021/12/24 05:43:50;;;;;;;3.73;2.87;;;10.70;99.90;;;;;;4993880;28;20639;-61
2021/12/24 05:46:16;;;;;;;3.50;3.20;;;10.80;99.90;;;;;;4993529;28;20503;-62
2021/12/24 05:48:41;;;;;;;3.60;3.30;;;10.90;99.90;;;;;;4993738;28;20483;-61
2021/12/24 05:51:08;;;;;;;3.03;2.73;;;11.00;99.90;;;;;;4993447;28;20685;-62
2021/12/24 05:53:34;;;;;;;4.10;2.83;;;11.10;99.90;;;;;;4993762;28;20169;-62
2021/12/24 05:55:59;;;;;;;3.50;3.20;;;11.20;99.90;;;;;;4994056;28;20472;-61
2021/12/24 05:58:25;;;;;;;3.80;3.20;;;11.20;99.90;;;;;;4997295;28;20179;-61
2021/12/24 06:00:51;;;;;;;5.43;3.37;;;11.10;99.90;;;;;;4997190;28;20201;-62
2021/12/24 06:03:17;;;;;;;4.63;3.03;;;10.80;99.90;;;;;;4997432;28;20173;-62
2021/12/24 06:05:44;;;;;;;3.47;3.17;;;10.90;99.90;;;;;;4997649;28;20423;-62
2021/12/24 06:08:10;;;;;;;3.60;3.30;;;11.10;99.90;;;;;;4997352;28;20173;-62
2021/12/24 06:10:36;;;;;;;3.20;2.90;;;11.10;99.90;;;;;;4997287;28;20427;-61
2021/12/24 06:13:03;;;;;;;4.87;3.53;;;11.20;99.90;;;;;;4997549;28;20624;-62
2021/12/24 06:15:29;;;;;;;3.53;3.23;;;11.10;99.90;;;;;;4996968;28;20412;-62
2021/12/24 06:17:57;;;;;;;3.80;3.20;;;11.10;99.90;;;;;;4997249;28;20746;-62
2021/12/24 06:20:24;;;;;;;4.10;3.43;;;11.10;99.90;;;;;;4996915;28;20622;-62
2021/12/24 06:22:50;;;;;;;4.10;3.70;;;11.10;99.90;;;;;;4996881;28;20830;-62
2021/12/24 06:25:17;;;;;;;7.57;3.50;;;11.10;99.90;;;;;;4996914;28;20455;-62
2021/12/24 06:27:45;;;;;;;4.17;3.20;;;11.00;99.90;;;;;;4997126;28;20775;-61
2021/12/24 06:30:11;;;;;;;6.07;3.93;;;11.00;99.90;;;;;;4997111;28;20448;-61
2021/12/24 06:32:37;;;;;;;3.70;3.40;;;11.00;99.90;;;;;;4996989;28;20415;-62
2021/12/24 06:35:04;;;;;;;7.23;4.17;;;11.00;99.90;;;;;;4997303;28;20429;-62
2021/12/24 06:37:29;;;;;;;4.03;3.63;;;10.80;99.90;;;;;;4998219;28;20633;-62
2021/12/24 06:39:55;;;;;;;3.57;3.20;;;10.90;99.90;;;;;;4997477;28;20558;-62
2021/12/24 06:42:22;;;;;;;4.40;4.00;;;10.90;99.90;;;;;;4996579;28;20195;-62
2021/12/24 06:44:47;;;;;;;5.37;3.77;;;10.90;99.90;;;;;;4996900;28;20164;-61
2021/12/24 06:47:13;;;;;;;4.17;3.53;;;10.90;99.90;;;;;;4996843;28;20413;-62
2021/12/24 06:49:39;;;;;;;3.80;3.43;;;10.80;99.90;;;;;;4996839;28;20431;-62
2021/12/24 06:52:05;;;;;;;3.53;3.10;;;11.00;99.90;;;;;;4999118;28;20637;-61
2021/12/24 06:54:33;;;;;;;4.43;3.93;;;10.80;99.90;;;;;;5001579;28;20250;-60
2021/12/24 06:57:02;;;;;;;3.80;3.50;;;10.90;99.90;;;;;;4998632;28;20780;-61
2021/12/24 06:59:28;;;;;;;5.60;3.93;;;10.80;99.90;;;;;;5001337;28;20969;-62
2021/12/24 07:01:56;;;;;;;5.50;3.97;;;10.70;99.90;;;;;;5005131;28;20439;-62
2021/12/24 07:04:21;;;;;;;6.90;4.43;;;10.90;99.90;;;;;;5001472;28;20441;-61
2021/12/24 07:06:47;;;;;;;7.43;4.17;;;10.90;99.90;;;;;;4997344;28;20414;-61
2021/12/24 07:09:15;;;;;;;4.80;3.97;;;11.00;99.90;;;;;;4995935;28;20161;-62
2021/12/24 07:11:41;;;;;;;3.80;3.40;;;10.90;99.90;;;;;;4997438;28;20557;-62
2021/12/24 07:14:07;;;;;;;6.63;3.90;;;10.90;99.90;;;;;;4999274;28;20420;-61
2021/12/24 07:16:32;;;;;;;7.00;4.27;;;10.80;99.90;;;;;;5002867;28;20403;-62
2021/12/24 07:19:16;;;;;;;3.50;3.20;;;10.90;99.90;;;;;;4998652;28;20181;-59
2021/12/24 07:21:42;;;;;;;4.63;4.20;;;11.00;99.90;;;;;;4997247;28;20228;-61
2021/12/24 07:24:08;;;;;;;5.00;3.70;;;11.00;99.90;;;;;;4996827;28;20437;-62
2021/12/24 07:26:34;;;;;;;6.80;3.93;;;10.90;99.90;;;;;;4996067;28;20582;-61
2021/12/24 07:29:00;;;;;;;6.00;4.13;;;11.00;99.90;;;;;;4996645;28;20479;-62
2021/12/24 07:31:26;;;;;;;5.53;3.67;;;11.00;99.90;;;;;;4996157;28;20442;-60
2021/12/24 07:33:51;;;;;;;4.00;3.53;;;11.00;99.90;;;;;;4996021;28;20176;-61
2021/12/24 07:36:17;;;;;;;4.20;3.80;;;10.90;99.90;;;;;;4998502;28;20530;-61
2021/12/24 07:38:43;;;;;;;4.10;3.70;;;10.90;99.90;;;;;;4997511;28;20175;-61
2021/12/24 07:41:08;;;;;;;4.30;3.90;;;10.80;99.90;;;;;;4997084;28;20194;-61
2021/12/24 07:43:34;;;;;;;4.47;3.73;;;10.80;99.90;;;;;;4997922;28;20304;-61
2021/12/24 07:46:00;;;;;;;4.70;4.30;;;10.80;99.90;;;;;;4998927;28;20164;-60
2021/12/24 07:48:31;;;;;;;4.70;4.00;;;10.70;99.90;;;;;;4996918;28;20164;-61
2021/12/24 07:53:25;;;;;;;3.93;3.53;;;10.60;99.90;;;;;;4995639;28;20408;-62
2021/12/24 07:55:53;;;;;;;6.37;4.20;;;10.60;99.90;;;;;;4995760;28;20899;-61
2021/12/24 07:58:19;;;;;;;4.90;3.57;;;10.60;99.90;;;;;;4995757;28;20416;-62
2021/12/24 08:00:46;;;;;;;3.90;3.27;;;10.60;99.90;;;;;;4995103;28;20429;-61
2021/12/24 08:03:11;;;;;;;3.60;3.30;;;10.70;99.90;;;;;;4995603;28;20219;-62
2021/12/24 08:05:40;;;;;;;4.37;3.90;;;10.70;99.90;;;;;;4995181;28;20406;-59
2021/12/24 08:08:08;;;;;;;3.90;3.50;;;10.60;99.90;;;;;;4995057;28;20243;-62
2021/12/24 08:10:34;;;;;;;6.60;4.10;;;10.60;99.90;;;;;;4995056;28;20423;-62
2021/12/24 08:13:01;;;;;;;4.13;3.70;;;10.60;99.90;;;;;;4994929;28;20483;-62
2021/12/24 08:15:27;;;;;;;3.73;3.43;;;10.60;99.90;;;;;;4994965;28;20774;-62
2021/12/24 08:17:53;;;;;;;4.10;3.70;;;10.70;99.90;;;;;;4994837;28;20400;-62
2021/12/24 08:20:23;;;;;;;4.13;3.83;;;10.80;99.90;;;;;;4994525;28;21028;-62
2021/12/24 08:22:50;;;;;;;5.40;4.90;;;10.70;99.90;;;;;;4995010;28;20208;-62
2021/12/24 08:25:16;;;;;;;3.80;3.10;;;10.60;99.90;;;;;;4994564;28;20404;-61
2021/12/24 08:27:42;;;;;;;10.80;7.10;;;10.70;99.90;;;;;;4995116;28;20438;-61
2021/12/24 08:30:09;;;;;;;32.20;22.80;;;10.70;99.90;;;;;;4994823;28;20792;-61
2021/12/24 08:32:38;;;;;;;7.77;6.47;;;10.80;99.90;;;;;;4994569;28;20162;-61
2021/12/24 08:35:06;;;;;;;12.33;9.10;;;10.80;99.90;;;;;;4994509;28;20397;-62
2021/12/24 08:37:31;;;;;;;9.10;7.57;;;10.80;99.90;;;;;;4994365;28;20412;-62
2021/12/24 08:39:57;;;;;;;7.97;5.50;;;10.70;99.90;;;;;;4994287;28;20497;-62
2021/12/24 08:42:23;;;;;;;7.03;5.87;;;10.60;99.90;;;;;;4994277;28;20208;-62
2021/12/24 08:44:48;;;;;;;17.60;14.90;;;10.60;99.90;;;;;;4994603;28;20233;-62
2021/12/24 08:47:14;;;;;;;4.40;4.00;;;10.60;99.90;;;;;;4994508;28;20201;-62
2021/12/24 08:49:40;;;;;;;7.20;4.90;;;10.70;99.90;;;;;;4994196;28;20189;-62
2021/12/24 08:52:06;;;;;;;7.00;4.83;;;10.70;99.90;;;;;;4994473;28;20171;-62
2021/12/24 08:54:31;;;;;;;4.97;4.50;;;10.80;99.90;;;;;;4994055;28;20614;-62
2021/12/24 08:56:58;;;;;;;5.37;4.87;;;10.80;99.90;;;;;;4994492;28;20179;-62
2021/12/24 08:59:23;;;;;;;7.10;5.60;;;10.90;99.90;;;;;;4994252;28;20271;-61
2021/12/24 09:01:50;;;;;;;4.30;3.87;;;10.90;99.90;;;;;;4993983;28;20528;-60
2021/12/24 09:04:16;;;;;;;6.60;4.07;;;11.00;99.90;;;;;;4993939;28;20168;-62
2021/12/24 09:06:41;;;;;;;7.00;6.40;;;10.90;99.90;;;;;;4994317;28;20883;-63
2021/12/24 09:09:10;;;;;;;13.93;12.73;;;11.00;99.90;;;;;;4993907;28;20315;-62
2021/12/24 09:11:37;;;;;;;8.27;5.63;;;11.00;99.90;;;;;;4993772;28;20179;-62
2021/12/24 09:14:03;;;;;;;4.60;4.10;;;10.80;99.90;;;;;;4994028;28;20415;-62
2021/12/24 09:16:29;;;;;;;4.53;4.13;;;10.80;99.90;;;;;;4993866;28;20775;-62
2021/12/24 09:19:01;;;;;;;9.63;6.63;;;10.70;99.90;;;;;;4994034;28;20496;-62
2021/12/24 09:21:27;;;;;;;9.37;7.33;;;10.70;99.90;;;;;;4994585;28;20205;-62
2021/12/24 09:23:55;;;;;;;7.70;6.10;;;10.80;99.90;;;;;;4994138;28;20406;-63
2021/12/24 09:26:27;;;;;;;5.30;4.50;;;10.80;99.90;;;;;;4992603;28;20432;-62
2021/12/24 09:28:53;;;;;;;7.30;5.13;;;10.70;99.90;;;;;;4993818;28;20410;-61
2021/12/24 09:31:19;;;;;;;5.80;5.20;;;10.60;99.90;;;;;;4993741;28;20436;-60
2021/12/24 09:33:45;;;;;;;6.70;6.10;;;10.70;99.90;;;;;;4997975;28;20493;-61
2021/12/24 09:36:11;;;;;;;8.10;6.07;;;10.70;99.90;;;;;;4997825;28;20415;-62
2021/12/24 09:38:36;;;;;;;6.40;5.70;;;10.80;99.90;;;;;;4997472;28;20667;-61
2021/12/24 09:41:03;;;;;;;4.80;4.30;;;10.80;99.90;;;;;;4998238;28;20991;-62
2021/12/24 09:43:28;;;;;;;6.90;4.00;;;10.90;99.90;;;;;;4997569;28;20224;-62
2021/12/24 09:45:54;;;;;;;5.67;4.47;;;10.90;99.90;;;;;;4997712;28;20808;-61
2021/12/24 09:48:20;;;;;;;4.27;3.77;;;11.00;99.90;;;;;;4997601;28;20295;-61
2021/12/24 09:50:46;;;;;;;3.97;3.67;;;10.90;99.90;;;;;;4997491;28;20425;-62
2021/12/24 09:53:12;;;;;;;5.53;5.03;;;10.90;99.90;;;;;;4997150;28;20169;-62
2021/12/24 09:55:38;;;;;;;4.33;3.83;;;11.00;99.90;;;;;;4997508;28;20406;-62
2021/12/24 09:58:04;;;;;;;3.67;3.37;;;11.10;99.90;;;;;;4997125;28;20403;-62
2021/12/24 10:00:30;;;;;;;5.23;4.23;;;11.20;99.90;;;;;;4995876;28;20196;-61
2021/12/24 10:02:58;;;;;;;3.83;3.43;;;11.10;99.90;;;;;;4997227;28;20416;-61
2021/12/24 10:05:25;;;;;;;7.07;3.70;;;11.00;99.90;;;;;;4997059;28;20907;-61
2021/12/24 10:07:51;;;;;;;4.07;3.53;;;10.80;99.90;;;;;;4997112;28;20495;-62
2021/12/24 10:10:26;;;;;;;4.73;4.30;;;10.60;99.90;;;;;;4997040;28;20506;-61
2021/12/24 10:12:52;;;;;;;3.90;3.40;;;10.80;99.90;;;;;;4997333;28;20396;-61
2021/12/24 10:15:19;;;;;;;4.60;3.23;;;10.80;99.90;;;;;;4996828;28;20918;-61
2021/12/24 10:17:45;;;;;;;3.80;3.40;;;10.80;99.90;;;;;;4996976;28;20792;-62
2021/12/24 10:20:17;;;;;;;4.83;4.43;;;10.80;99.90;;;;;;5020905;23;20487;-63
2021/12/24 10:22:48;;;;;;;4.20;3.60;;;10.90;99.90;;;;;;4996715;28;20495;-63
2021/12/24 10:25:14;;;;;;;3.43;3.13;;;11.00;99.90;;;;;;4997103;28;20388;-63
2021/12/24 10:27:41;;;;;;;3.23;2.90;;;10.90;99.90;;;;;;4997526;28;20746;-63
2021/12/24 10:30:22;;;;;;;5.83;4.40;;;11.10;99.90;;;;;;4996886;28;20433;-63
2021/12/24 10:32:50;;;;;;;4.60;4.20;;;11.30;99.90;;;;;;4997019;28;20881;-63
2021/12/24 10:35:24;;;;;;;4.40;3.53;;;11.20;99.90;;;;;;4996792;28;20423;-63
2021/12/24 10:38:13;;;;;;;4.23;3.83;;;11.00;99.90;;;;;;4996990;28;20419;-62
2021/12/24 10:40:52;;;;;;;4.63;4.23;;;11.00;99.90;;;;;;4996625;28;20608;-62
2021/12/24 10:43:30;;;;;;;3.97;3.27;;;11.20;99.90;;;;;;4994388;28;20455;-62
2021/12/24 10:46:13;;;;;;;5.90;3.03;;;11.30;99.90;;;;;;4996245;28;20483;-62
2021/12/24 10:48:48;;;;;;;4.20;2.90;;;11.40;99.90;;;;;;4997105;28;20387;-63
2021/12/24 10:51:32;;;;;;;3.50;2.80;;;11.50;99.90;;;;;;4996278;28;20430;-62
2021/12/24 10:54:05;;;;;;;4.63;3.27;;;11.20;99.90;;;;;;4996523;28;20396;-63
2021/12/24 10:56:31;;;;;;;3.80;3.47;;;11.00;99.90;;;;;;4994848;28;20502;-63
2021/12/24 10:58:57;;;;;;;4.43;2.93;;;11.10;99.90;;;;;;4996188;28;20491;-61
2021/12/24 11:01:22;;;;;;;3.50;3.20;;;11.00;99.90;;;;;;4996380;28;20456;-64
2021/12/24 11:03:49;;;;;;;3.07;2.77;;;11.10;99.90;;;;;;4996206;28;20400;-63
2021/12/24 11:06:15;;;;;;;3.97;3.17;;;11.10;99.90;;;;;;4996388;28;20588;-63
2021/12/24 11:08:42;;;;;;;5.67;3.43;;;11.00;99.90;;;;;;4996146;28;20432;-63
2021/12/24 11:11:14;;;;;;;3.67;3.37;;;11.00;99.90;;;;;;4996132;28;20431;-63
2021/12/24 11:13:45;;;;;;;2.63;2.43;;;10.80;99.90;;;;;;4996400;28;20442;-63
2021/12/24 11:16:15;;;;;;;3.63;3.33;;;10.90;99.90;;;;;;4996550;28;20917;-62
2021/12/24 11:18:47;;;;;;;3.63;2.87;;;11.10;99.90;;;;;;4996593;28;20486;-63
2021/12/24 11:21:26;;;;;;;3.73;3.03;;;11.00;99.90;;;;;;4995828;28;20489;-62
2021/12/24 11:23:53;;;;;;;3.43;2.50;;;10.90;99.90;;;;;;4995833;28;20490;-62
2021/12/24 11:26:26;;;;;;;2.17;2.00;;;10.80;99.90;;;;;;4995673;28;20403;-63
2021/12/24 11:28:52;;;;;;;2.23;1.80;;;10.90;99.90;;;;;;4995467;28;20419;-63
2021/12/24 11:31:29;;;;;;;3.70;2.70;;;11.00;99.90;;;;;;4995773;28;20429;-63
2021/12/24 11:33:55;;;;;;;2.80;2.60;;;11.00;99.90;;;;;;4995643;28;20385;-62
2021/12/24 11:36:23;;;;;;;2.40;2.20;;;11.00;99.90;;;;;;4995771;28;20404;-63
2021/12/24 11:38:52;;;;;;;2.43;2.00;;;11.10;99.90;;;;;;4995479;28;20487;-63
2021/12/24 11:41:20;;;;;;;2.33;2.10;;;11.10;99.90;;;;;;4995690;28;20554;-63
2021/12/24 11:43:48;;;;;;;2.87;2.30;;;11.10;99.90;;;;;;4994148;28;20849;-63
2021/12/24 11:46:16;;;;;;;2.30;2.10;;;11.20;99.90;;;;;;4995361;28;20400;-63
2021/12/24 11:48:44;;;;;;;3.10;2.80;;;11.20;99.90;;;;;;4995438;28;20406;-63
2021/12/24 11:51:20;;;;;;;2.30;2.10;;;11.30;99.90;;;;;;4995115;28;20422;-64
2021/12/24 11:53:47;;;;;;;2.00;1.80;;;11.40;99.90;;;;;;4994791;28;20415;-63
2021/12/24 11:56:17;;;;;;;2.50;1.83;;;11.30;99.90;;;;;;4995178;28;20416;-63
2021/12/24 11:58:52;;;;;;;2.97;1.93;;;11.30;99.90;;;;;;4995174;28;20414;-63
2021/12/24 12:01:19;;;;;;;2.87;2.50;;;11.50;99.90;;;;;;4993561;28;20455;-63
2021/12/24 12:03:49;;;;;;;2.37;1.90;;;11.30;99.90;;;;;;4995099;28;20491;-62
2021/12/24 12:06:17;;;;;;;2.97;2.43;;;11.40;99.90;;;;;;4995178;28;20404;-63
2021/12/24 12:08:44;;;;;;;1.90;1.80;;;11.60;99.90;;;;;;4995072;28;20404;-62
2021/12/24 12:11:27;;;;;;;2.50;2.30;;;11.80;99.90;;;;;;4995344;28;20433;-62
2021/12/24 12:14:04;;;;;;;2.27;1.80;;;11.80;99.90;;;;;;4995234;28;20425;-63
2021/12/24 12:16:53;;;;;;;2.77;2.30;;;12.00;99.90;;;;;;4995157;28;20457;-62
2021/12/24 12:19:36;;;;;;;1.80;1.50;;;11.80;99.90;;;;;;4994943;28;20394;-63
2021/12/24 12:22:30;;;;;;;2.87;2.23;;;11.60;99.90;;;;;;4994753;28;20442;-63
2021/12/24 12:25:12;;;;;;;2.20;1.50;;;11.60;99.90;;;;;;4995242;28;20372;-63
2021/12/24 12:27:57;;;;;;;1.73;1.53;;;11.60;99.90;;;;;;4995569;28;20376;-63
2021/12/24 12:30:36;;;;;;;2.50;1.63;;;11.70;99.90;;;;;;4995036;28;20472;-65
2021/12/24 12:33:16;;;;;;;1.70;1.50;;;11.70;99.90;;;;;;4995259;28;20415;-64
2021/12/24 12:35:56;;;;;;;3.43;1.20;;;11.50;99.90;;;;;;4994802;28;20458;-63
2021/12/24 12:38:33;;;;;;;2.10;1.33;;;11.50;99.90;;;;;;4994577;28;20402;-63
2021/12/24 12:41:32;;;;;;;1.73;1.50;;;11.70;99.90;;;;;;4994974;28;20559;-63
2021/12/24 12:44:01;;;;;;;3.87;1.30;;;11.70;99.90;;;;;;4995236;28;20376;-63
2021/12/24 12:46:32;;;;;;;1.40;1.30;;;11.80;99.90;;;;;;4995047;28;20407;-63
2021/12/24 12:49:01;;;;;;;1.60;1.30;;;11.70;99.90;;;;;;4995206;28;20403;-62
2021/12/24 12:51:54;;;;;;;1.10;1.00;;;11.70;99.90;;;;;;4994671;28;20424;-63
2021/12/24 12:54:42;;;;;;;1.60;1.50;;;11.90;99.90;;;;;;4994453;28;20408;-63
2021/12/24 12:57:35;;;;;;;1.23;1.07;;;12.10;99.90;;;;;;4994646;28;20407;-63
2021/12/24 13:00:18;;;;;;;1.17;0.90;;;11.90;99.90;;;;;;4992764;28;20432;-64
2021/12/24 13:05:41;;;;;;;3.03;1.23;;;11.60;99.90;;;;;;4993639;28;20376;-63
2021/12/24 13:08:22;;;;;;;1.20;1.10;;;11.70;99.90;;;;;;4994374;28;20380;-63
2021/12/24 13:10:53;;;;;;;1.67;1.30;;;11.70;99.90;;;;;;4994674;28;20832;-63
2021/12/24 13:13:19;;;;;;;1.40;1.13;;;11.80;99.90;;;;;;4994465;28;20806;-63
2021/12/24 13:15:46;;;;;;;1.77;1.43;;;11.80;99.90;;;;;;4994280;28;20400;-63
2021/12/24 13:18:30;;;;;;;1.73;1.10;;;11.70;99.90;;;;;;4993998;28;20230;-63
2021/12/24 13:23:38;;;;;;;2.23;1.10;;;11.60;99.90;;;;;;4994257;28;20410;-63
2021/12/24 13:26:13;;;;;;;1.10;1.00;;;11.50;99.90;;;;;;4994205;28;20865;-63
2021/12/24 13:28:56;;;;;;;1.47;1.10;;;11.40;99.90;;;;;;4994186;28;20892;-63
2021/12/24 13:31:22;;;;;;;2.20;1.60;;;11.50;99.90;;;;;;4993837;28;20958;-63
2021/12/24 13:33:48;;;;;;;1.10;1.00;;;11.50;99.90;;;;;;4993893;28;20484;-63
2021/12/24 13:36:13;;;;;;;1.63;1.27;;;11.50;99.90;;;;;;4993873;28;20502;-63
2021/12/24 13:38:39;;;;;;;1.60;1.17;;;11.60;99.90;;;;;;4993792;28;20523;-63
2021/12/24 13:41:05;;;;;;;1.30;1.20;;;11.70;99.90;;;;;;4993753;28;20225;-63
2021/12/24 13:43:36;;;;;;;1.10;1.00;;;11.60;99.90;;;;;;4993984;28;20772;-63
2021/12/24 13:46:10;;;;;;;1.60;1.50;;;11.60;99.90;;;;;;4994198;28;20615;-64
2021/12/24 13:48:51;;;;;;;1.97;1.77;;;11.40;99.90;;;;;;4993995;28;20404;-63
2021/12/24 13:56:40;;;;;;;2.73;1.80;;;11.50;99.90;;;;;;4994021;28;20395;-63
2021/12/24 13:59:06;;;;;;;2.20;1.67;;;11.70;99.90;;;;;;4993723;28;20497;-63
2021/12/24 14:01:33;;;;;;;1.77;1.60;;;11.60;99.90;;;;;;4993485;28;21047;-63
2021/12/24 14:04:02;;;;;;;1.33;1.23;;;11.60;99.90;;;;;;4992216;28;20416;-63
2021/12/24 14:06:42;;;;;;;2.40;2.00;;;11.70;99.90;;;;;;4993688;28;20408;-62
2021/12/24 14:09:14;;;;;;;2.00;1.80;;;11.70;99.90;;;;;;4993800;28;20908;-63
2021/12/24 14:11:40;;;;;;;1.93;1.70;;;11.50;99.90;;;;;;4993371;28;20519;-62
2021/12/24 14:14:12;;;;;;;2.80;1.73;;;11.60;99.90;;;;;;4993533;28;20436;-62
2021/12/24 14:19:32;;;;;;;1.60;1.40;;;11.70;99.90;;;;;;4997586;28;20433;-63
2021/12/24 14:22:10;;;;;;;1.63;1.53;;;11.70;99.90;;;;;;4997322;28;20436;-63
2021/12/24 14:24:36;;;;;;;1.43;1.33;;;11.70;99.90;;;;;;4997115;28;20815;-63
2021/12/24 14:27:05;;;;;;;2.20;1.57;;;11.60;99.90;;;;;;4996871;28;20456;-63
2021/12/24 14:29:42;;;;;;;1.80;1.70;;;11.70;99.90;;;;;;4997043;28;20406;-63
2021/12/24 14:32:28;;;;;;;1.50;1.33;;;11.60;99.90;;;;;;4996938;28;20413;-63
2021/12/24 14:34:55;;;;;;;2.03;1.60;;;11.60;99.90;;;;;;4997499;28;20392;-64
2021/12/24 14:37:29;;;;;;;1.63;1.50;;;11.60;99.90;;;;;;4996876;28;20411;-64
2021/12/24 14:40:06;;;;;;;1.10;1.00;;;11.80;99.90;;;;;;4996821;28;20786;-64
2021/12/24 14:42:50;;;;;;;1.53;1.43;;;12.00;99.90;;;;;;4996743;28;20542;-62
2021/12/24 14:45:33;;;;;;;2.23;1.60;;;11.70;99.90;;;;;;4996669;28;20462;-64
2021/12/24 14:48:14;;;;;;;1.50;1.40;;;11.70;99.90;;;;;;4996661;28;20388;-64
2021/12/24 14:51:02;;;;;;;2.30;2.10;;;11.40;99.90;;;;;;4996235;28;20499;-62